Time;durP1;ratioP1;P1;durP2;ratioP2;P2;SDS_P1;SDS_P2;PMS_P1;PMS_P2;Temp;Humidity;BMP_temperature;BMP_pressure;BME280_temperature;BME280_humidity;BME280_pressure;Samples;Min_cycle;Max_cycle;Signal;HPM_P1;HPM_P2
2022/09/26 00:01:16;;;;;;;11.07;5.18;;;10.40;99.90;;;;;;4933745;29;20051;-72
2022/09/26 00:03:44;;;;;;;6.78;5.22;;;10.40;99.90;;;;;;4932317;29;20048;-72
2022/09/26 00:06:12;;;;;;;10.35;5.70;;;10.40;99.90;;;;;;4934009;29;20103;-72
2022/09/26 00:08:40;;;;;;;7.07;5.80;;;10.40;99.90;;;;;;4932520;29;20087;-72
2022/09/26 00:11:09;;;;;;;7.75;6.07;;;10.40;99.90;;;;;;4933977;29;20075;-72
2022/09/26 00:13:38;;;;;;;7.40;5.53;;;10.40;99.90;;;;;;4932268;29;20072;-73
2022/09/26 00:16:08;;;;;;;6.97;5.72;;;10.40;99.90;;;;;;4916322;29;20044;-72
2022/09/26 00:18:35;;;;;;;7.18;5.75;;;10.30;99.90;;;;;;4932110;29;20052;-74
2022/09/26 00:21:03;;;;;;;10.88;5.80;;;10.30;99.90;;;;;;4932434;29;20146;-72
2022/09/26 00:23:31;;;;;;;9.60;6.38;;;10.30;99.90;;;;;;4932909;29;20113;-72
2022/09/26 00:25:59;;;;;;;9.25;5.88;;;10.30;99.90;;;;;;4933330;29;20518;-72
2022/09/26 00:28:28;;;;;;;7.25;5.90;;;10.30;99.90;;;;;;4931699;29;20123;-72
2022/09/26 00:30:55;;;;;;;7.38;5.22;;;10.30;99.90;;;;;;4931438;29;20040;-72
2022/09/26 00:33:23;;;;;;;7.90;5.00;;;10.30;99.90;;;;;;4933028;29;20055;-72
2022/09/26 00:35:51;;;;;;;12.50;6.53;;;10.30;99.90;;;;;;4915938;29;20496;-72
2022/09/26 00:38:18;;;;;;;8.68;5.50;;;10.30;99.90;;;;;;4915834;29;20544;-72
2022/09/26 00:40:46;;;;;;;9.90;6.40;;;10.30;99.90;;;;;;4932726;29;20063;-72
2022/09/26 00:43:29;;;;;;;9.63;6.05;;;10.30;99.90;;;;;;4931772;29;20500;-72
2022/09/26 00:46:00;;;;;;;9.32;5.75;;;10.30;99.90;;;;;;4947957;29;20060;-71
2022/09/26 00:48:29;;;;;;;10.35;6.60;;;10.30;99.90;;;;;;4932076;29;20528;-72
2022/09/26 00:50:57;;;;;;;9.85;6.68;;;10.20;99.90;;;;;;4932718;29;20051;-73
2022/09/26 00:53:28;;;;;;;9.23;5.70;;;10.20;99.90;;;;;;4935989;29;20048;-73
2022/09/26 00:56:01;;;;;;;11.32;6.50;;;10.20;99.90;;;;;;4935456;29;20058;-73
2022/09/26 00:58:34;;;;;;;7.50;6.47;;;10.10;99.90;;;;;;4919424;29;20091;-73
2022/09/26 01:01:02;;;;;;;7.05;5.85;;;10.10;99.90;;;;;;4934922;29;20501;-73
2022/09/26 01:03:31;;;;;;;9.48;6.25;;;10.00;99.90;;;;;;4935119;29;20055;-73
2022/09/26 01:05:58;;;;;;;10.23;6.28;;;9.90;99.90;;;;;;4935141;29;20118;-73
2022/09/26 01:08:32;;;;;;;14.27;6.72;;;9.90;99.90;;;;;;4936312;29;20142;-73
2022/09/26 01:10:59;;;;;;;;;;;9.80;99.90;;;;;;4936722;29;20058;-72
2022/09/26 01:13:27;;;;;;;8.98;6.68;;;9.80;99.90;;;;;;4919042;29;20058;-72
2022/09/26 01:15:56;;;;;;;9.93;6.43;;;9.80;99.90;;;;;;4935038;29;20082;-72
2022/09/26 01:18:23;;;;;;;11.73;6.05;;;9.80;99.90;;;;;;4933592;29;20051;-72
2022/09/26 01:20:56;;;;;;;8.48;5.95;;;9.80;99.90;;;;;;4934529;29;20115;-72
2022/09/26 01:23:47;;;;;;;13.57;6.03;;;9.80;99.90;;;;;;4935616;29;20082;-73
2022/09/26 01:26:37;;;;;;;11.30;6.18;;;9.90;99.90;;;;;;4922937;29;20054;-72
2022/09/26 01:29:37;;;;;;;9.65;5.78;;;9.90;99.90;;;;;;4934959;29;20133;-71
2022/09/26 01:35:08;;;;;;;11.27;6.93;;;10.00;99.90;;;;;;4923265;29;20051;-72
2022/09/26 01:37:42;;;;;;;8.57;5.97;;;10.10;99.90;;;;;;4936044;29;20122;-71
2022/09/26 01:40:16;;;;;;;10.27;6.63;;;10.10;99.90;;;;;;4919254;29;20062;-71
2022/09/26 01:42:53;;;;;;;8.73;6.47;;;10.10;99.90;;;;;;4934158;29;20062;-73
2022/09/26 01:45:25;;;;;;;8.73;6.15;;;10.10;99.90;;;;;;4935245;29;20516;-72
2022/09/26 01:48:02;;;;;;;7.90;6.63;;;10.10;99.90;;;;;;4934493;29;20051;-72
2022/09/26 01:50:37;;;;;;;8.23;6.00;;;10.10;99.90;;;;;;4934430;29;20826;-71
2022/09/26 01:53:08;;;;;;;9.27;5.60;;;10.20;99.90;;;;;;4918221;29;20052;-72
2022/09/26 01:55:39;;;;;;;9.30;5.60;;;10.20;99.90;;;;;;4933705;29;20074;-71
2022/09/26 01:58:11;;;;;;;8.95;5.40;;;10.20;99.90;;;;;;4918139;29;20048;-72
2022/09/26 02:00:41;;;;;;;9.43;5.60;;;10.30;99.90;;;;;;4934139;29;20047;-71
2022/09/26 02:03:14;;;;;;;8.10;6.50;;;10.30;99.90;;;;;;4934975;29;20056;-72
2022/09/26 02:05:46;;;;;;;9.73;5.57;;;10.40;99.90;;;;;;4934326;29;20056;-74
2022/09/26 02:08:17;;;;;;;8.57;5.60;;;10.40;99.90;;;;;;4935578;29;20064;-74
2022/09/26 02:10:49;;;;;;;10.07;5.53;;;10.40;99.90;;;;;;4933810;29;20091;-74
2022/09/26 02:13:19;;;;;;;8.48;5.68;;;10.40;99.90;;;;;;4918133;29;20701;-75
2022/09/26 02:15:51;;;;;;;8.05;5.90;;;10.40;99.90;;;;;;4918163;29;20062;-75
2022/09/26 02:18:29;;;;;;;10.63;8.10;;;10.50;99.90;;;;;;4918073;29;20052;-75
2022/09/26 02:21:01;;;;;;;11.35;8.60;;;10.50;99.90;;;;;;4903451;29;20044;-74
2022/09/26 02:23:30;;;;;;;12.93;8.55;;;10.40;99.90;;;;;;4923807;29;20055;-75
2022/09/26 02:25:58;;;;;;;16.08;9.23;;;10.40;99.90;;;;;;4933617;29;20085;-74
2022/09/26 02:28:27;;;;;;;17.90;9.70;;;10.50;99.90;;;;;;4934010;29;20147;-74
2022/09/26 02:30:56;;;;;;;12.88;8.60;;;10.50;99.90;;;;;;4933476;29;20416;-75
2022/09/26 02:33:25;;;;;;;9.80;8.38;;;10.50;99.90;;;;;;4933786;29;20575;-75
2022/09/26 02:35:56;;;;;;;10.73;8.07;;;10.50;99.90;;;;;;4933545;29;20424;-75
2022/09/26 02:38:28;;;;;;;14.68;9.68;;;10.50;99.90;;;;;;4949509;28;20051;-76
2022/09/26 02:41:28;;;;;;;15.55;9.15;;;10.60;99.90;;;;;;4934668;29;20160;-75
2022/09/26 02:44:23;;;;;;;13.77;10.13;;;10.60;99.90;;;;;;4934156;29;20142;-74
2022/09/26 02:47:10;;;;;;;17.48;10.20;;;10.60;99.90;;;;;;4933779;29;20059;-74
2022/09/26 02:50:07;;;;;;;13.27;9.27;;;10.60;99.90;;;;;;4933420;29;20060;-74
2022/09/26 02:52:43;;;;;;;11.98;9.00;;;10.60;99.90;;;;;;4932915;29;20055;-74
2022/09/26 02:55:19;;;;;;;13.35;9.20;;;10.60;99.90;;;;;;4933834;29;20083;-73
2022/09/26 02:57:55;;;;;;;14.20;10.23;;;10.50;99.90;;;;;;4928758;29;20047;-74
2022/09/26 03:00:25;;;;;;;14.25;9.90;;;10.50;99.90;;;;;;4933168;29;20548;-74
2022/09/26 03:03:02;;;;;;;15.43;10.85;;;10.50;99.90;;;;;;4920427;29;20428;-74
2022/09/26 03:05:32;;;;;;;14.68;10.35;;;10.40;99.90;;;;;;4932415;29;20043;-75
2022/09/26 03:08:04;;;;;;;15.60;10.52;;;10.40;99.90;;;;;;4932912;29;20533;-75
2022/09/26 03:10:32;;;;;;;14.80;11.30;;;10.40;99.90;;;;;;4934205;29;20055;-75
2022/09/26 03:13:05;;;;;;;15.45;10.63;;;10.40;99.90;;;;;;4916778;29;20047;-75
2022/09/26 03:15:34;;;;;;;17.35;11.18;;;10.40;99.90;;;;;;4933728;29;20154;-75
2022/09/26 03:18:03;;;;;;;16.52;11.55;;;10.40;99.90;;;;;;4932689;29;20115;-75
2022/09/26 03:20:32;;;;;;;19.42;12.00;;;10.40;99.90;;;;;;4932212;29;20540;-75
2022/09/26 03:22:59;;;;;;;18.30;11.38;;;10.30;99.90;;;;;;4932826;29;20047;-75
2022/09/26 03:25:28;;;;;;;20.10;13.27;;;10.40;99.90;;;;;;4932733;29;20081;-75
2022/09/26 03:28:04;;;;;;;18.80;11.63;;;10.40;99.90;;;;;;4932920;29;20051;-75
2022/09/26 03:30:31;;;;;;;21.17;13.43;;;10.40;99.90;;;;;;4933778;29;20129;-75
2022/09/26 03:33:17;;;;;;;16.30;12.27;;;10.40;99.90;;;;;;4933632;29;20508;-75
2022/09/26 03:35:45;;;;;;;23.35;14.23;;;10.30;99.90;;;;;;4916956;29;20082;-74
2022/09/26 03:38:13;;;;;;;21.33;13.38;;;10.30;99.90;;;;;;4932448;29;20086;-74
2022/09/26 03:40:42;;;;;;;23.27;14.80;;;10.30;99.90;;;;;;4932514;29;21026;-75
2022/09/26 03:43:30;;;;;;;23.80;14.32;;;10.30;99.90;;;;;;4933194;29;20051;-72
2022/09/26 03:46:01;;;;;;;22.20;14.77;;;10.30;99.90;;;;;;4932405;29;20075;-72
2022/09/26 03:48:28;;;;;;;22.25;14.00;;;10.20;99.90;;;;;;4932635;29;20098;-72
2022/09/26 03:51:02;;;;;;;21.90;13.55;;;10.20;99.90;;;;;;4932257;29;20082;-73
2022/09/26 03:53:30;;;;;;;;;;;10.30;99.90;;;;;;4932627;29;20397;-73
2022/09/26 03:56:03;;;;;;;21.70;14.00;;;10.20;99.90;;;;;;4919581;29;19933;-72
2022/09/26 03:58:30;;;;;;;24.75;15.60;;;10.20;99.90;;;;;;4922563;29;20134;-73
2022/09/26 04:01:03;;;;;;;28.48;16.20;;;10.20;99.90;;;;;;4931902;29;20051;-73
2022/09/26 04:03:33;;;;;;;25.20;15.35;;;10.20;99.90;;;;;;4932198;29;20492;-73
2022/09/26 04:06:03;;;;;;;27.58;16.83;;;10.20;99.90;;;;;;4932215;29;20412;-73
2022/09/26 04:08:31;;;;;;;29.08;16.30;;;10.20;99.90;;;;;;4931926;29;20051;-73
2022/09/26 04:11:02;;;;;;;32.83;18.30;;;10.20;99.90;;;;;;4936793;29;20173;-75
2022/09/26 04:13:30;;;;;;;31.50;18.40;;;10.20;99.90;;;;;;4921461;29;20051;-75
2022/09/26 04:15:57;;;;;;;30.48;17.38;;;10.20;99.90;;;;;;4926491;29;20040;-73
2022/09/26 04:18:25;;;;;;;24.45;16.50;;;10.20;99.90;;;;;;4911458;29;20056;-72
2022/09/26 04:21:00;;;;;;;35.88;19.15;;;10.20;99.90;;;;;;4928844;29;20094;-72
2022/09/26 04:23:31;;;;;;;36.22;19.10;;;10.20;99.90;;;;;;4946396;28;20056;-73
2022/09/26 04:26:05;;;;;;;31.80;18.73;;;10.20;99.90;;;;;;4932896;29;20099;-73
2022/09/26 04:28:35;;;;;;;29.65;18.40;;;10.20;99.90;;;;;;4937431;29;20047;-73
2022/09/26 04:31:05;;;;;;;31.70;18.50;;;10.20;99.90;;;;;;4919996;29;20448;-73
2022/09/26 04:33:33;;;;;;;30.90;18.13;;;10.30;99.90;;;;;;4936091;29;20079;-74
2022/09/26 04:36:13;;;;;;;33.53;19.83;;;10.30;99.90;;;;;;4947751;29;20051;-73
2022/09/26 04:38:42;;;;;;;37.05;19.50;;;10.30;99.90;;;;;;4916604;29;20142;-73
2022/09/26 04:41:14;;;;;;;;;;;10.30;99.90;;;;;;4956963;28;20437;-77
2022/09/26 04:43:41;;;;;;;35.65;18.67;;;10.30;99.90;;;;;;4939704;29;19933;-78
2022/09/26 04:46:13;;;;;;;38.92;19.65;;;10.30;99.90;;;;;;4911047;29;20048;-78
2022/09/26 04:48:44;;;;;;;37.60;19.60;;;10.30;99.90;;;;;;4928373;29;20059;-73
2022/09/26 04:51:19;;;;;;;33.38;19.55;;;10.30;99.90;;;;;;4936176;29;20580;-79
2022/09/26 04:53:51;;;;;;;36.13;19.80;;;10.30;99.90;;;;;;4921081;29;20051;-79
2022/09/26 04:56:26;;;;;;;48.53;22.42;;;10.30;99.90;;;;;;4931238;29;20518;-73
2022/09/26 04:58:56;;;;;;;38.80;20.13;;;10.40;99.90;;;;;;4924829;29;20091;-72
2022/09/26 05:01:26;;;;;;;40.05;21.17;;;10.40;99.90;;;;;;4937816;29;20070;-73
2022/09/26 05:03:57;;;;;;;40.38;22.38;;;10.40;99.90;;;;;;4933785;28;20055;-72
2022/09/26 05:06:26;;;;;;;31.92;19.77;;;10.40;99.90;;;;;;4918709;29;20508;-72
2022/09/26 05:08:56;;;;;;;37.28;20.48;;;10.40;99.90;;;;;;4931230;29;20653;-73
2022/09/26 05:11:53;;;;;;;46.53;21.88;;;10.40;99.90;;;;;;4936533;29;20063;-71
2022/09/26 05:14:20;;;;;;;48.75;22.42;;;10.50;99.90;;;;;;4932772;29;20663;-72
2022/09/26 05:16:49;;;;;;;38.15;20.98;;;10.50;99.90;;;;;;4945921;29;20043;-72
2022/09/26 05:19:17;;;;;;;46.20;23.65;;;10.50;99.90;;;;;;4930861;29;20055;-70
2022/09/26 05:22:03;;;;;;;46.28;24.13;;;10.50;99.90;;;;;;4914006;29;20456;-71
2022/09/26 05:27:18;;;;;;;51.08;24.40;;;10.60;99.90;;;;;;4929465;29;20060;-70
2022/09/26 05:29:45;;;;;;;40.55;20.88;;;10.60;99.90;;;;;;4916581;29;20078;-70
2022/09/26 05:32:19;;;;;;;41.70;23.52;;;10.70;99.90;;;;;;4946973;29;20055;-71
2022/09/26 05:34:47;;;;;;;43.95;22.65;;;10.70;99.90;;;;;;4937620;29;20059;-72
2022/09/26 05:37:17;;;;;;;59.20;25.40;;;10.70;99.90;;;;;;4916928;29;20148;-71
2022/09/26 05:42:32;;;;;;;44.22;24.08;;;10.70;99.90;;;;;;4950661;29;20111;-71
2022/09/26 05:45:02;;;;;;;51.88;24.63;;;10.80;99.90;;;;;;4935951;29;20055;-71
2022/09/26 05:47:35;;;;;;;43.40;24.25;;;10.80;99.90;;;;;;4934385;29;20062;-71
2022/09/26 05:50:08;;;;;;;46.90;24.70;;;10.90;99.90;;;;;;4950974;29;20529;-71
2022/09/26 05:52:37;;;;;;;51.30;25.77;;;10.90;99.90;;;;;;4963107;28;20059;-71
2022/09/26 05:55:07;;;;;;;51.33;29.55;;;11.00;99.90;;;;;;4963608;28;20079;-76
2022/09/26 05:57:55;;;;;;;51.58;27.77;;;11.00;99.90;;;;;;4930370;29;20079;-76
2022/09/26 06:00:27;;;;;;;56.42;29.35;;;11.10;99.90;;;;;;4941779;29;20059;-76
2022/09/26 06:02:56;;;;;;;51.75;27.48;;;11.10;99.90;;;;;;4933401;29;20047;-76
2022/09/26 06:05:40;;;;;;;55.22;28.80;;;11.10;99.90;;;;;;4928759;29;20136;-76
2022/09/26 06:08:16;;;;;;;58.25;29.10;;;11.10;99.90;;;;;;4932344;29;20579;-75
2022/09/26 06:10:54;;;;;;;47.17;27.08;;;11.10;99.90;;;;;;4920579;29;20158;-76
2022/09/26 06:13:22;;;;;;;47.30;27.90;;;11.10;99.90;;;;;;4935207;29;20106;-70
2022/09/26 06:15:50;;;;;;;50.35;27.80;;;11.10;99.90;;;;;;4933129;29;20430;-75
2022/09/26 06:18:18;;;;;;;48.28;27.65;;;11.20;99.90;;;;;;4937682;29;20059;-70
2022/09/26 06:20:49;;;;;;;48.67;28.00;;;11.20;99.90;;;;;;4935507;29;20055;-75
2022/09/26 06:23:17;;;;;;;51.53;28.60;;;11.20;99.90;;;;;;4920214;29;20154;-80
2022/09/26 06:25:47;;;;;;;47.05;27.48;;;11.20;99.90;;;;;;4937289;29;20413;-73
2022/09/26 06:28:16;;;;;;;45.72;27.13;;;11.20;99.90;;;;;;4949080;28;20050;-75
2022/09/26 06:30:45;;;;;;;55.30;29.00;;;11.20;99.90;;;;;;4941822;29;20412;-73
2022/09/26 06:33:20;;;;;;;56.53;30.23;;;11.30;99.90;;;;;;4954738;28;20043;-79
2022/09/26 06:36:13;;;;;;;;;;;11.40;99.90;;;;;;4945694;28;20048;-74
2022/09/26 06:38:41;;;;;;;46.60;27.00;;;11.50;99.90;;;;;;4943792;28;20374;-73
2022/09/26 06:41:16;;;;;;;49.90;29.48;;;11.60;99.90;;;;;;4959407;28;20400;-78
2022/09/26 06:43:46;;;;;;;51.45;27.67;;;11.60;99.90;;;;;;4946975;28;20590;-78
2022/09/26 06:46:36;;;;;;;48.97;27.37;;;11.60;99.90;;;;;;4948990;28;20054;-78
2022/09/26 06:49:15;;;;;;;43.10;26.15;;;11.60;99.90;;;;;;4964320;28;20082;-75
2022/09/26 06:51:47;;;;;;;42.10;25.88;;;11.60;99.90;;;;;;4951273;29;20055;-75
2022/09/26 06:54:17;;;;;;;46.90;28.23;;;11.60;99.90;;;;;;4967573;28;20070;-76
2022/09/26 06:56:44;;;;;;;42.10;26.67;;;11.60;99.90;;;;;;4947510;29;20082;-77
2022/09/26 06:59:15;;;;;;;50.03;27.40;;;11.60;99.90;;;;;;4967524;28;20468;-76
2022/09/26 07:01:50;;;;;;;41.80;26.83;;;11.70;99.90;;;;;;4967520;28;20396;-76
2022/09/26 07:04:35;;;;;;;45.40;25.58;;;11.70;99.90;;;;;;4943234;28;20055;-77
2022/09/26 07:07:14;;;;;;;48.28;26.15;;;11.70;99.90;;;;;;4963372;28;20066;-77
2022/09/26 07:09:41;;;;;;;38.85;25.42;;;11.70;99.90;;;;;;4952249;28;20047;-76
2022/09/26 07:12:36;;;;;;;40.20;24.85;;;11.70;99.90;;;;;;4966861;28;20079;-76
2022/09/26 07:15:06;;;;;;;41.10;26.15;;;11.80;99.90;;;;;;4967403;28;20055;-76
2022/09/26 07:17:34;;;;;;;40.20;24.73;;;11.80;99.90;;;;;;4945349;29;20555;-76
2022/09/26 07:20:35;;;;;;;40.10;25.42;;;11.80;99.90;;;;;;4953776;28;20055;-72
2022/09/26 07:23:12;;;;;;;41.42;26.13;;;11.90;99.90;;;;;;4952996;28;20051;-70
2022/09/26 07:25:45;;;;;;;34.35;23.83;;;12.00;99.90;;;;;;4953441;28;20083;-76
2022/09/26 07:28:13;;;;;;;34.17;23.50;;;12.10;99.90;;;;;;4938049;29;20044;-76
2022/09/26 07:30:50;;;;;;;45.67;25.67;;;12.10;99.90;;;;;;4931148;29;20054;-76
2022/09/26 07:33:43;;;;;;;41.67;24.90;;;12.20;99.90;;;;;;4948453;28;20138;-77
2022/09/26 07:36:12;;;;;;;37.95;24.23;;;12.30;99.90;;;;;;4950789;29;20051;-76
2022/09/26 07:38:40;;;;;;;36.45;23.38;;;12.30;99.90;;;;;;4967983;28;20047;-75
2022/09/26 07:41:09;;;;;;;34.50;22.88;;;12.40;99.90;;;;;;4968281;28;20047;-76
2022/09/26 07:43:36;;;;;;;39.35;24.60;;;12.40;99.90;;;;;;4966870;28;20075;-76
2022/09/26 07:52:11;;;;;;;32.25;21.35;;;12.70;99.90;;;;;;4933839;29;20059;-76
2022/09/26 07:54:46;;;;;;;30.85;20.98;;;12.80;99.90;;;;;;4949459;28;20142;-77
2022/09/26 07:57:34;;;;;;;33.40;21.02;;;12.90;99.90;;;;;;4950958;28;20043;-76
2022/09/26 08:00:33;;;;;;;28.83;19.63;;;13.00;99.90;;;;;;4948107;28;20058;-76
2022/09/26 08:03:12;;;;;;;33.30;20.70;;;13.10;99.90;;;;;;4965522;28;20058;-75
2022/09/26 08:05:41;;;;;;;32.17;19.75;;;13.10;99.90;;;;;;4965711;28;20058;-76
2022/09/26 08:08:09;;;;;;;27.67;18.50;;;13.30;99.90;;;;;;4951601;28;20408;-76
2022/09/26 08:10:56;;;;;;;30.50;18.48;;;13.30;99.90;;;;;;4951602;28;20047;-77
2022/09/26 08:13:28;;;;;;;24.52;18.00;;;13.50;99.90;;;;;;4952870;28;20047;-77
2022/09/26 08:16:28;;;;;;;24.13;16.55;;;13.70;99.90;;;;;;4961862;28;20051;-77
2022/09/26 08:19:00;;;;;;;24.05;16.75;;;13.90;99.90;;;;;;4967454;28;20065;-77
2022/09/26 08:21:28;;;;;;;27.20;17.00;;;13.90;99.90;;;;;;4967575;28;20146;-77
2022/09/26 08:23:57;;;;;;;22.55;15.30;;;14.00;99.90;;;;;;4951384;28;20500;-76
2022/09/26 08:26:43;;;;;;;21.88;16.30;;;14.00;99.90;;;;;;4953209;28;20066;-76
2022/09/26 08:29:16;;;;;;;19.90;15.88;;;13.90;99.90;;;;;;4951446;28;20512;-78
2022/09/26 08:31:46;;;;;;;23.67;14.75;;;13.90;99.90;;;;;;4951507;28;20062;-77
2022/09/26 08:34:15;;;;;;;20.05;14.60;;;13.90;99.90;;;;;;4967447;28;20479;-77
2022/09/26 08:36:50;;;;;;;25.15;14.95;;;14.00;99.90;;;;;;4951469;28;20479;-76
2022/09/26 08:39:47;;;;;;;25.38;15.82;;;13.90;99.90;;;;;;4951221;28;20149;-75
2022/09/26 08:42:56;;;;;;;26.17;16.42;;;13.90;99.90;;;;;;4952159;28;20054;-76
2022/09/26 08:49:22;;;;;;;21.80;16.30;;;14.00;99.90;;;;;;4951264;28;20142;-76
2022/09/26 08:51:52;;;;;;;20.55;15.02;;;14.00;99.90;;;;;;4967346;28;20540;-79
2022/09/26 08:54:27;;;;;;;21.20;15.90;;;14.10;99.90;;;;;;4951531;28;20051;-78
2022/09/26 08:56:59;;;;;;;23.08;16.88;;;14.10;99.90;;;;;;4967984;28;20058;-77
2022/09/26 08:59:31;;;;;;;22.63;15.75;;;14.20;99.90;;;;;;4919185;29;20146;-76
2022/09/26 09:02:03;;;;;;;24.77;16.40;;;14.30;99.90;;;;;;4958157;29;20055;-76
2022/09/26 09:04:45;;;;;;;19.02;14.82;;;14.30;99.90;;;;;;4928085;29;20342;-75
2022/09/26 09:07:21;;;;;;;23.58;16.23;;;14.40;99.90;;;;;;4934144;29;20060;-77
2022/09/26 09:09:51;;;;;;;26.33;17.05;;;14.50;99.90;;;;;;4916629;29;20058;-76
2022/09/26 09:12:53;;;;;;;22.58;18.38;;;14.50;99.90;;;;;;4932623;29;20036;-77
2022/09/26 09:16:04;;;;;;;25.23;17.17;;;14.50;99.90;;;;;;4931918;29;20205;-76
2022/09/26 09:19:07;;;;;;;24.85;16.35;;;14.50;99.90;;;;;;4919784;29;20574;-75
2022/09/26 09:22:06;;;;;;;22.08;14.32;;;14.60;99.90;;;;;;4950952;29;20059;-76
2022/09/26 09:25:00;;;;;;;26.55;17.88;;;14.60;99.90;;;;;;4929150;29;20159;-77
2022/09/26 09:27:45;;;;;;;25.50;16.85;;;14.50;99.90;;;;;;4934327;29;20067;-78
2022/09/26 09:30:20;;;;;;;34.75;18.15;;;14.60;99.90;;;;;;4935004;29;20056;-76
2022/09/26 09:32:56;;;;;;;23.08;17.92;;;14.60;99.90;;;;;;4936723;29;20555;-76
2022/09/26 09:35:52;;;;;;;24.63;18.77;;;14.50;99.90;;;;;;4937183;29;20066;-76
2022/09/26 09:38:40;;;;;;;22.23;15.85;;;14.40;99.90;;;;;;4936294;29;20047;-76
2022/09/26 09:41:24;;;;;;;23.42;16.63;;;14.40;99.90;;;;;;4934812;29;20075;-78
2022/09/26 09:43:55;;;;;;;22.10;14.80;;;14.30;99.90;;;;;;4935927;29;20491;-76
2022/09/26 09:46:27;;;;;;;26.05;15.05;;;14.20;99.90;;;;;;4934913;29;20079;-76
2022/09/26 09:48:58;;;;;;;23.48;16.00;;;14.10;99.90;;;;;;4950565;28;20558;-76
2022/09/26 09:51:33;;;;;;;23.80;16.83;;;14.00;99.90;;;;;;4936062;29;20066;-77
2022/09/26 09:54:25;;;;;;;26.73;16.88;;;14.00;99.90;;;;;;4950375;28;20583;-79
2022/09/26 09:57:12;;;;;;;22.33;15.95;;;14.10;99.90;;;;;;4950283;29;20127;-77
2022/09/26 09:59:55;;;;;;;30.45;18.25;;;14.30;99.90;;;;;;4950353;28;21000;-77
2022/09/26 10:02:31;;;;;;;26.00;17.15;;;14.40;99.90;;;;;;4950513;29;20552;-75
2022/09/26 10:05:15;;;;;;;25.02;17.30;;;14.50;99.90;;;;;;4933586;29;20126;-75
2022/09/26 10:07:43;;;;;;;27.98;17.33;;;14.50;99.90;;;;;;4915247;29;20052;-77
2022/09/26 10:10:37;;;;;;;23.83;16.95;;;14.60;99.90;;;;;;4932183;29;20063;-74
2022/09/26 10:13:36;;;;;;;21.48;15.80;;;14.70;99.90;;;;;;4930945;29;20085;-76
2022/09/26 10:16:23;;;;;;;24.95;15.93;;;14.70;99.90;;;;;;4950043;29;20058;-75
2022/09/26 10:19:06;;;;;;;26.23;16.67;;;14.80;99.90;;;;;;4949647;28;20456;-76
2022/09/26 10:21:39;;;;;;;31.27;17.63;;;14.80;99.90;;;;;;4948096;28;20536;-75
2022/09/26 10:24:21;;;;;;;21.60;16.80;;;14.80;99.90;;;;;;4937074;29;20143;-76
2022/09/26 10:26:51;;;;;;;34.28;18.38;;;14.80;99.90;;;;;;4899048;29;20056;-75
2022/09/26 10:29:33;;;;;;;27.63;17.63;;;14.90;99.90;;;;;;4931430;29;20074;-74
2022/09/26 10:32:02;;;;;;;27.08;17.83;;;14.90;99.90;;;;;;4952708;29;20127;-75
2022/09/26 10:34:32;;;;;;;23.02;17.70;;;14.90;99.90;;;;;;4966893;28;20059;-75
2022/09/26 10:37:21;;;;;;;27.10;18.25;;;14.90;99.90;;;;;;4933874;29;20418;-76
2022/09/26 10:42:38;;;;;;;22.52;16.42;;;15.00;99.90;;;;;;4944735;28;20389;-74
2022/09/26 10:45:14;;;;;;;22.98;15.80;;;15.10;99.90;;;;;;4950799;29;20166;-75
2022/09/26 10:48:12;;;;;;;25.17;17.90;;;15.20;99.90;;;;;;4948617;28;20731;-76
2022/09/26 10:51:09;;;;;;;22.13;15.75;;;15.40;99.90;;;;;;4955441;28;20465;-77
2022/09/26 10:53:58;;;;;;;22.90;16.40;;;15.50;99.90;;;;;;4916606;29;20142;-76
2022/09/26 10:56:29;;;;;;;23.83;15.98;;;15.50;99.90;;;;;;4917371;29;20508;-76
2022/09/26 10:59:00;;;;;;;20.85;15.63;;;15.70;99.90;;;;;;4917212;29;20425;-76
2022/09/26 11:01:32;;;;;;;22.52;15.40;;;15.80;99.90;;;;;;4916879;29;20058;-76
2022/09/26 11:04:13;;;;;;;22.98;15.18;;;16.00;99.90;;;;;;4945474;28;20047;-76
2022/09/26 11:07:00;;;;;;;27.60;15.45;;;16.10;99.90;;;;;;4953903;28;20654;-77
2022/09/26 11:09:46;;;;;;;21.83;15.18;;;16.20;99.90;;;;;;4941621;28;20279;-76
2022/09/26 11:12:57;;;;;;;23.95;14.55;;;16.30;99.90;;;;;;4937479;29;20055;-77
2022/09/26 11:15:24;;;;;;;19.70;14.68;;;16.40;99.90;;;;;;4930839;29;20079;-77
2022/09/26 11:17:54;;;;;;;22.70;15.05;;;16.40;99.90;;;;;;4913674;29;20055;-77
2022/09/26 11:20:42;;;;;;;27.23;14.40;;;16.40;99.90;;;;;;4928262;29;20208;-77
2022/09/26 11:23:31;;;;;;;19.52;13.85;;;16.30;99.90;;;;;;4923062;29;20064;-76
2022/09/26 11:26:11;;;;;;;20.92;14.00;;;16.30;99.90;;;;;;4929683;29;20066;-77
2022/09/26 11:28:43;;;;;;;23.85;15.13;;;16.30;99.90;;;;;;4922488;29;20495;-77
2022/09/26 11:31:27;;;;;;;15.57;13.18;;;16.20;99.90;;;;;;4918520;29;20052;-79
2022/09/26 11:34:30;;;;;;;15.93;11.85;;;16.10;99.90;;;;;;4927917;29;20055;-77
2022/09/26 11:37:29;;;;;;;17.05;12.65;;;16.10;99.90;;;;;;4933562;29;20047;-78
2022/09/26 11:40:04;;;;;;;;;;;16.20;99.90;;;;;;4933622;29;20058;-78
2022/09/26 11:42:43;;;;;;;18.13;14.20;;;16.10;99.90;;;;;;4930940;29;19933;-77
2022/09/26 11:45:21;;;;;;;15.82;12.38;;;16.20;99.90;;;;;;4930582;29;20103;-78
2022/09/26 11:48:34;;;;;;;13.75;12.27;;;16.40;99.90;;;;;;4929170;28;20062;-77
2022/09/26 11:51:48;;;;;;;20.35;11.70;;;16.50;99.90;;;;;;4932916;29;20071;-77
2022/09/26 11:54:28;;;;;;;19.10;11.98;;;16.90;99.90;;;;;;4931356;29;20047;-77
2022/09/26 11:57:07;;;;;;;16.05;12.45;;;17.10;99.90;;;;;;4931998;29;20075;-76
2022/09/26 11:59:53;;;;;;;19.13;11.93;;;17.20;99.90;;;;;;4927660;29;20135;-76
2022/09/26 12:02:36;;;;;;;13.85;12.02;;;17.30;99.90;;;;;;4931107;29;20110;-77
2022/09/26 12:05:23;;;;;;;14.10;11.63;;;17.30;99.90;;;;;;4913673;29;20497;-77
2022/09/26 12:08:07;;;;;;;12.25;10.95;;;17.30;99.90;;;;;;4912403;29;20040;-78
2022/09/26 12:10:41;;;;;;;16.63;11.07;;;17.20;99.90;;;;;;4911211;29;20056;-79
2022/09/26 12:13:33;;;;;;;17.77;12.75;;;17.10;99.90;;;;;;4912722;29;20401;-77
2022/09/26 12:16:08;;;;;;;16.70;12.32;;;16.90;99.90;;;;;;4927616;29;20055;-77
2022/09/26 12:18:46;;;;;;;14.35;12.20;;;16.80;99.90;;;;;;4932542;29;20055;-78
2022/09/26 12:21:25;;;;;;;18.92;11.77;;;16.70;99.90;;;;;;4933709;29;20088;-77
2022/09/26 12:24:01;;;;;;;24.33;11.70;;;16.50;99.90;;;;;;4931563;29;20056;-77
2022/09/26 12:26:38;;;;;;;18.25;11.45;;;16.20;99.90;;;;;;4931182;29;20063;-77
2022/09/26 12:29:24;;;;;;;17.75;12.25;;;16.00;99.90;;;;;;4933463;29;20064;-77
2022/09/26 12:32:07;;;;;;;14.32;11.43;;;15.90;99.90;;;;;;4933985;29;20051;-77
2022/09/26 12:34:59;;;;;;;18.05;11.50;;;15.60;99.90;;;;;;4932521;29;20143;-77
2022/09/26 12:37:47;;;;;;;12.60;9.57;;;15.40;99.90;;;;;;4931400;29;20078;-76
2022/09/26 12:40:29;;;;;;;17.63;9.70;;;15.30;99.90;;;;;;4927123;29;20060;-78
2022/09/26 12:43:19;;;;;;;17.23;10.43;;;15.20;99.90;;;;;;4930008;29;20044;-77
2022/09/26 12:46:03;;;;;;;15.68;11.43;;;15.20;99.90;;;;;;4919607;29;20107;-78
2022/09/26 12:48:53;;;;;;;17.77;11.82;;;15.20;99.90;;;;;;4935150;29;20059;-76
2022/09/26 12:51:31;;;;;;;17.42;11.80;;;15.10;99.90;;;;;;4933300;29;20086;-78
2022/09/26 12:54:22;;;;;;;17.00;10.55;;;15.10;99.90;;;;;;4929797;29;20118;-76
2022/09/26 12:56:54;;;;;;;15.73;10.23;;;15.10;99.90;;;;;;4948399;29;20468;-77
2022/09/26 12:59:38;;;;;;;18.75;11.45;;;15.10;99.90;;;;;;4939791;29;20056;-77
2022/09/26 13:02:35;;;;;;;19.95;10.68;;;15.00;99.90;;;;;;4931137;29;20083;-77
2022/09/26 13:05:37;;;;;;;17.48;10.40;;;14.90;99.90;;;;;;4929749;29;20059;-77
2022/09/26 13:08:12;;;;;;;16.92;10.48;;;14.90;99.90;;;;;;4930884;29;20072;-79
2022/09/26 13:10:53;;;;;;;16.42;9.88;;;14.70;99.90;;;;;;4935420;29;20047;-77
2022/09/26 13:14:07;;;;;;;15.38;8.48;;;14.70;99.90;;;;;;4934223;29;20055;-78
2022/09/26 13:16:46;;;;;;;15.98;9.88;;;14.60;99.90;;;;;;4930506;29;20067;-77
2022/09/26 13:19:22;;;;;;;13.00;8.65;;;14.50;99.90;;;;;;4934613;29;20051;-77
2022/09/26 13:21:53;;;;;;;19.48;9.65;;;14.50;99.90;;;;;;4932520;29;20119;-77
2022/09/26 13:24:24;;;;;;;13.52;9.48;;;14.50;99.90;;;;;;4934884;29;20083;-75
2022/09/26 13:26:59;;;;;;;13.85;9.20;;;14.50;99.90;;;;;;4932693;29;20058;-76
2022/09/26 13:29:36;;;;;;;12.60;8.98;;;14.50;99.90;;;;;;4929506;29;20052;-75
2022/09/26 13:32:15;;;;;;;18.67;10.32;;;14.40;99.90;;;;;;4934913;29;20466;-76
2022/09/26 13:34:50;;;;;;;15.35;8.85;;;14.40;99.90;;;;;;4933447;29;20222;-77
2022/09/26 13:37:34;;;;;;;11.10;8.68;;;14.30;99.90;;;;;;4933189;29;20101;-75
2022/09/26 13:40:15;;;;;;;14.90;8.73;;;14.30;99.90;;;;;;4940084;29;20512;-78
2022/09/26 13:42:45;;;;;;;20.98;10.07;;;14.20;99.90;;;;;;4931380;29;20063;-73